sensor_id;sensor_type;location;lat;lon;timestamp;pressure;altitude;pressure_sealevel;temperature;humidity
62655;BME280;48717;55.556;37.816;2022-12-07T00:01:22;100683.28;;;-11.23;63.84
62655;BME280;48717;55.556;37.816;2022-12-07T00:03:50;100691.09;;;-11.21;63.89
62655;BME280;48717;55.556;37.816;2022-12-07T00:06:19;100695.91;;;-11.24;64.39
62655;BME280;48717;55.556;37.816;2022-12-07T00:08:47;100698.44;;;-11.24;64.17
62655;BME280;48717;55.556;37.816;2022-12-07T00:11:22;100690.47;;;-11.28;63.92
62655;BME280;48717;55.556;37.816;2022-12-07T00:13:58;100688.69;;;-11.29;64.52
62655;BME280;48717;55.556;37.816;2022-12-07T00:16:28;100690.59;;;-11.35;64.41
62655;BME280;48717;55.556;37.816;2022-12-07T00:32:16;100662.19;;;-11.13;62.79
62655;BME280;48717;55.556;37.816;2022-12-07T00:34:43;100682.72;;;-11.03;61.85
62655;BME280;48717;55.556;37.816;2022-12-07T00:37:10;100664.41;;;-11.16;62.32
62655;BME280;48717;55.556;37.816;2022-12-07T00:39:39;100664.16;;;-11.19;62.14
62655;BME280;48717;55.556;37.816;2022-12-07T00:42:06;100681.41;;;-10.99;61.34
62655;BME280;48717;55.556;37.816;2022-12-07T00:44:33;100691.88;;;-10.96;60.89
62655;BME280;48717;55.556;37.816;2022-12-07T00:47:00;100703.09;;;-11.03;61.64
62655;BME280;48717;55.556;37.816;2022-12-07T00:49:27;100699.19;;;-11.08;60.55
62655;BME280;48717;55.556;37.816;2022-12-07T00:51:54;100685.00;;;-11.06;61.04
62655;BME280;48717;55.556;37.816;2022-12-07T00:54:21;100652.88;;;-11.30;61.91
62655;BME280;48717;55.556;37.816;2022-12-07T00:56:48;100693.06;;;-11.10;62.00
62655;BME280;48717;55.556;37.816;2022-12-07T00:59:15;100690.84;;;-11.07;61.29
62655;BME280;48717;55.556;37.816;2022-12-07T01:01:42;100672.22;;;-11.23;61.06
62655;BME280;48717;55.556;37.816;2022-12-07T01:04:10;100686.63;;;-11.15;61.17
62655;BME280;48717;55.556;37.816;2022-12-07T01:06:38;100699.63;;;-11.12;62.04
62655;BME280;48717;55.556;37.816;2022-12-07T01:09:05;100687.66;;;-11.22;61.56
62655;BME280;48717;55.556;37.816;2022-12-07T01:11:33;100691.72;;;-11.15;61.43
62655;BME280;48717;55.556;37.816;2022-12-07T01:14:00;100692.00;;;-11.12;61.36
62655;BME280;48717;55.556;37.816;2022-12-07T01:16:30;100694.69;;;-11.10;61.55
62655;BME280;48717;55.556;37.816;2022-12-07T01:18:58;100676.28;;;-11.17;61.51
62655;BME280;48717;55.556;37.816;2022-12-07T01:21:28;100683.00;;;-11.17;61.74
62655;BME280;48717;55.556;37.816;2022-12-07T01:23:59;100678.97;;;-11.15;61.69
62655;BME280;48717;55.556;37.816;2022-12-07T01:26:26;100670.28;;;-11.17;61.38
62655;BME280;48717;55.556;37.816;2022-12-07T01:28:54;100675.81;;;-11.21;61.38
62655;BME280;48717;55.556;37.816;2022-12-07T01:31:23;100687.50;;;-11.23;61.84
62655;BME280;48717;55.556;37.816;2022-12-07T01:33:53;100673.41;;;-11.29;62.11
62655;BME280;48717;55.556;37.816;2022-12-07T01:38:55;100679.81;;;-11.32;62.90
62655;BME280;48717;55.556;37.816;2022-12-07T01:41:25;100665.31;;;-11.42;63.01
62655;BME280;48717;55.556;37.816;2022-12-07T01:44:12;100684.75;;;-11.34;62.35
62655;BME280;48717;55.556;37.816;2022-12-07T01:46:42;100673.84;;;-11.33;62.63
62655;BME280;48717;55.556;37.816;2022-12-07T01:49:14;100662.44;;;-11.45;62.32
62655;BME280;48717;55.556;37.816;2022-12-07T01:51:43;100668.88;;;-11.40;63.07
62655;BME280;48717;55.556;37.816;2022-12-07T01:54:11;100674.25;;;-11.46;63.36
62655;BME280;48717;55.556;37.816;2022-12-07T01:56:44;100664.50;;;-11.50;63.09
62655;BME280;48717;55.556;37.816;2022-12-07T01:59:15;100673.50;;;-11.54;63.25
62655;BME280;48717;55.556;37.816;2022-12-07T02:01:43;100646.53;;;-11.60;62.99
62655;BME280;48717;55.556;37.816;2022-12-07T02:04:11;100669.31;;;-11.53;63.83
62655;BME280;48717;55.556;37.816;2022-12-07T02:06:39;100668.84;;;-11.58;63.65
62655;BME280;48717;55.556;37.816;2022-12-07T02:09:08;100625.03;;;-11.80;63.89
62655;BME280;48717;55.556;37.816;2022-12-07T02:11:35;100635.84;;;-11.74;64.02
62655;BME280;48717;55.556;37.816;2022-12-07T02:14:02;100661.31;;;-11.65;64.84
62655;BME280;48717;55.556;37.816;2022-12-07T02:19:23;100659.53;;;-11.66;64.74
62655;BME280;48717;55.556;37.816;2022-12-07T02:28:13;100626.53;;;-11.91;65.43
62655;BME280;48717;55.556;37.816;2022-12-07T02:30:47;100666.38;;;-11.74;65.01
62655;BME280;48717;55.556;37.816;2022-12-07T02:33:28;100657.56;;;-11.77;65.21
62655;BME280;48717;55.556;37.816;2022-12-07T02:36:06;100657.97;;;-11.82;65.99
62655;BME280;48717;55.556;37.816;2022-12-07T02:39:18;100655.88;;;-11.86;66.09
62655;BME280;48717;55.556;37.816;2022-12-07T02:41:29;100632.47;;;-11.99;66.07
62655;BME280;48717;55.556;37.816;2022-12-07T02:44:01;100649.25;;;-11.93;66.26
62655;BME280;48717;55.556;37.816;2022-12-07T02:46:36;100630.81;;;-12.08;66.25
62655;BME280;48717;55.556;37.816;2022-12-07T02:49:05;100645.63;;;-11.95;66.76
62655;BME280;48717;55.556;37.816;2022-12-07T02:51:34;100641.25;;;-12.04;67.55
62655;BME280;48717;55.556;37.816;2022-12-07T02:54:12;100637.88;;;-12.05;67.61
62655;BME280;48717;55.556;37.816;2022-12-07T02:56:50;100637.88;;;-12.05;67.18
62655;BME280;48717;55.556;37.816;2022-12-07T03:02:31;100652.97;;;-12.07;67.58
62655;BME280;48717;55.556;37.816;2022-12-07T03:08:15;100649.78;;;-12.04;67.81
62655;BME280;48717;55.556;37.816;2022-12-07T03:11:04;100657.59;;;-12.02;68.11
62655;BME280;48717;55.556;37.816;2022-12-07T03:13:50;100642.94;;;-12.05;67.70
62655;BME280;48717;55.556;37.816;2022-12-07T03:16:30;100635.16;;;-12.07;67.41
62655;BME280;48717;55.556;37.816;2022-12-07T03:19:13;100647.41;;;-12.02;68.47
62655;BME280;48717;55.556;37.816;2022-12-07T03:21:51;100642.94;;;-12.05;68.37
62655;BME280;48717;55.556;37.816;2022-12-07T03:24:30;100631.88;;;-12.06;68.58
62655;BME280;48717;55.556;37.816;2022-12-07T03:27:12;100595.25;;;-12.33;68.73
62655;BME280;48717;55.556;37.816;2022-12-07T03:29:45;100577.59;;;-12.40;68.45
62655;BME280;48717;55.556;37.816;2022-12-07T03:37:33;100643.22;;;-12.02;67.91
62655;BME280;48717;55.556;37.816;2022-12-07T03:42:35;100604.56;;;-12.24;68.98
62655;BME280;48717;55.556;37.816;2022-12-07T03:45:03;100637.53;;;-12.08;69.04
62655;BME280;48717;55.556;37.816;2022-12-07T03:47:47;100610.56;;;-12.24;69.11
62655;BME280;48717;55.556;37.816;2022-12-07T03:50:29;100616.25;;;-12.17;69.22
62655;BME280;48717;55.556;37.816;2022-12-07T03:53:11;100618.91;;;-12.25;69.14
62655;BME280;48717;55.556;37.816;2022-12-07T03:55:43;100632.44;;;-12.17;70.00
62655;BME280;48717;55.556;37.816;2022-12-07T03:58:15;100619.78;;;-12.33;69.64
62655;BME280;48717;55.556;37.816;2022-12-07T04:00:43;100619.47;;;-12.36;69.91
62655;BME280;48717;55.556;37.816;2022-12-07T04:03:11;100644.03;;;-12.28;70.17
62655;BME280;48717;55.556;37.816;2022-12-07T04:05:39;100641.31;;;-12.29;70.20
62655;BME280;48717;55.556;37.816;2022-12-07T04:08:06;100624.81;;;-12.42;70.70
62655;BME280;48717;55.556;37.816;2022-12-07T04:10:33;100631.38;;;-12.44;71.04
62655;BME280;48717;55.556;37.816;2022-12-07T04:13:01;100634.34;;;-12.48;70.83
62655;BME280;48717;55.556;37.816;2022-12-07T04:15:28;100630.72;;;-12.50;71.28
62655;BME280;48717;55.556;37.816;2022-12-07T04:17:55;100628.59;;;-12.54;71.99
62655;BME280;48717;55.556;37.816;2022-12-07T04:20:22;100643.22;;;-12.61;72.30
62655;BME280;48717;55.556;37.816;2022-12-07T04:22:49;100621.03;;;-12.70;72.63
62655;BME280;48717;55.556;37.816;2022-12-07T04:25:16;100626.13;;;-12.70;72.52
62655;BME280;48717;55.556;37.816;2022-12-07T04:27:43;100639.56;;;-12.72;73.45
62655;BME280;48717;55.556;37.816;2022-12-07T04:30:11;100629.97;;;-12.74;72.90
62655;BME280;48717;55.556;37.816;2022-12-07T04:32:38;100631.44;;;-12.76;73.61
62655;BME280;48717;55.556;37.816;2022-12-07T04:35:05;100624.25;;;-12.80;73.60
62655;BME280;48717;55.556;37.816;2022-12-07T04:37:32;100596.91;;;-12.99;73.49
62655;BME280;48717;55.556;37.816;2022-12-07T04:39:59;100621.81;;;-12.88;74.47
62655;BME280;48717;55.556;37.816;2022-12-07T04:42:28;100637.63;;;-12.90;74.55
62655;BME280;48717;55.556;37.816;2022-12-07T04:44:55;100623.81;;;-13.01;74.69
62655;BME280;48717;55.556;37.816;2022-12-07T04:47:22;100624.69;;;-13.01;75.42
62655;BME280;48717;55.556;37.816;2022-12-07T04:49:49;100624.97;;;-13.06;75.99
62655;BME280;48717;55.556;37.816;2022-12-07T04:52:17;100632.47;;;-12.99;75.94
62655;BME280;48717;55.556;37.816;2022-12-07T04:54:44;100636.66;;;-13.00;75.65
62655;BME280;48717;55.556;37.816;2022-12-07T04:57:11;100633.97;;;-13.01;76.39
62655;BME280;48717;55.556;37.816;2022-12-07T04:59:38;100639.75;;;-13.02;76.32
62655;BME280;48717;55.556;37.816;2022-12-07T05:02:11;100624.63;;;-13.09;76.84
62655;BME280;48717;55.556;37.816;2022-12-07T05:04:38;100626.75;;;-13.05;76.70
62655;BME280;48717;55.556;37.816;2022-12-07T05:07:05;100573.38;;;-13.30;76.96
62655;BME280;48717;55.556;37.816;2022-12-07T05:09:32;100636.66;;;-13.00;77.29
62655;BME280;48717;55.556;37.816;2022-12-07T05:11:59;100611.94;;;-13.09;77.18
62655;BME280;48717;55.556;37.816;2022-12-07T05:14:26;100616.28;;;-13.08;77.54
62655;BME280;48717;55.556;37.816;2022-12-07T05:16:53;100609.72;;;-13.06;77.36
62655;BME280;48717;55.556;37.816;2022-12-07T05:19:20;100609.88;;;-13.21;77.50
62655;BME280;48717;55.556;37.816;2022-12-07T05:21:47;100615.75;;;-13.13;77.80
62655;BME280;48717;55.556;37.816;2022-12-07T05:24:16;100625.03;;;-13.14;78.43
62655;BME280;48717;55.556;37.816;2022-12-07T05:26:44;100623.72;;;-13.10;78.70
62655;BME280;48717;55.556;37.816;2022-12-07T05:29:13;100626.09;;;-13.12;79.19
62655;BME280;48717;55.556;37.816;2022-12-07T05:31:41;100628.63;;;-13.12;78.90
62655;BME280;48717;55.556;37.816;2022-12-07T05:34:08;100622.16;;;-13.17;79.91
62655;BME280;48717;55.556;37.816;2022-12-07T05:36:36;100627.00;;;-13.11;79.81
62655;BME280;48717;55.556;37.816;2022-12-07T05:39:03;100627.91;;;-13.11;79.99
62655;BME280;48717;55.556;37.816;2022-12-07T05:41:30;100619.88;;;-13.06;80.67
62655;BME280;48717;55.556;37.816;2022-12-07T05:44:16;100627.50;;;-13.06;80.99
62655;BME280;48717;55.556;37.816;2022-12-07T05:46:43;100631.84;;;-13.05;80.52
62655;BME280;48717;55.556;37.816;2022-12-07T05:49:10;100615.63;;;-13.15;81.06
62655;BME280;48717;55.556;37.816;2022-12-07T05:51:37;100629.72;;;-13.09;81.44
62655;BME280;48717;55.556;37.816;2022-12-07T05:54:04;100617.75;;;-13.11;81.59
62655;BME280;48717;55.556;37.816;2022-12-07T05:56:32;100631.25;;;-13.03;81.76
62655;BME280;48717;55.556;37.816;2022-12-07T05:58:59;100610.56;;;-13.15;81.71
62655;BME280;48717;55.556;37.816;2022-12-07T06:01:44;100596.16;;;-13.23;81.50
62655;BME280;48717;55.556;37.816;2022-12-07T06:04:11;100606.59;;;-13.20;82.32
62655;BME280;48717;55.556;37.816;2022-12-07T06:06:38;100621.34;;;-13.08;82.42
62655;BME280;48717;55.556;37.816;2022-12-07T06:09:06;100630.94;;;-13.06;82.46
62655;BME280;48717;55.556;37.816;2022-12-07T06:11:33;100623.13;;;-13.07;82.19
62655;BME280;48717;55.556;37.816;2022-12-07T06:14:18;100613.56;;;-13.10;82.51
62655;BME280;48717;55.556;37.816;2022-12-07T06:16:45;100613.16;;;-13.06;82.80
62655;BME280;48717;55.556;37.816;2022-12-07T06:19:13;100617.34;;;-13.06;82.70
62655;BME280;48717;55.556;37.816;2022-12-07T06:21:40;100627.06;;;-13.02;82.63
62655;BME280;48717;55.556;37.816;2022-12-07T06:24:07;100623.47;;;-13.04;82.75
62655;BME280;48717;55.556;37.816;2022-12-07T06:26:35;100630.69;;;-13.00;82.68
62655;BME280;48717;55.556;37.816;2022-12-07T06:29:02;100635.75;;;-13.00;82.61
62655;BME280;48717;55.556;37.816;2022-12-07T06:31:29;100635.75;;;-13.00;82.97
62655;BME280;48717;55.556;37.816;2022-12-07T06:33:58;100605.63;;;-13.13;82.65
62655;BME280;48717;55.556;37.816;2022-12-07T06:36:26;100588.38;;;-13.25;83.58
62655;BME280;48717;55.556;37.816;2022-12-07T06:38:53;100626.00;;;-13.04;83.19
62655;BME280;48717;55.556;37.816;2022-12-07T06:41:20;100589.34;;;-13.15;83.62
62655;BME280;48717;55.556;37.816;2022-12-07T06:43:51;100606.75;;;-13.02;83.21
62655;BME280;48717;55.556;37.816;2022-12-07T06:46:22;100623.63;;;-12.87;83.66
62655;BME280;48717;55.556;37.816;2022-12-07T06:48:49;100608.78;;;-12.91;83.36
62655;BME280;48717;55.556;37.816;2022-12-07T06:51:17;100605.50;;;-12.90;83.23
62655;BME280;48717;55.556;37.816;2022-12-07T06:53:44;100611.25;;;-12.83;83.52
62655;BME280;48717;55.556;37.816;2022-12-07T06:56:11;100598.47;;;-12.92;83.40
62655;BME280;48717;55.556;37.816;2022-12-07T06:58:39;100617.56;;;-12.71;83.12
62655;BME280;48717;55.556;37.816;2022-12-07T07:01:11;100604.16;;;-12.70;83.29
62655;BME280;48717;55.556;37.816;2022-12-07T07:03:39;100617.81;;;-12.61;83.28
62655;BME280;48717;55.556;37.816;2022-12-07T07:06:06;100612.16;;;-12.58;82.57
62655;BME280;48717;55.556;37.816;2022-12-07T07:08:35;100624.81;;;-12.42;82.42
62655;BME280;48717;55.556;37.816;2022-12-07T07:11:03;100620.44;;;-12.18;82.01
62655;BME280;48717;55.556;37.816;2022-12-07T07:13:30;100628.06;;;-11.75;80.91
62655;BME280;48717;55.556;37.816;2022-12-07T07:15:57;100616.94;;;-11.24;78.95
62655;BME280;48717;55.556;37.816;2022-12-07T07:18:24;100599.25;;;-10.79;75.96
62655;BME280;48717;55.556;37.816;2022-12-07T07:20:52;100603.91;;;-10.29;73.12
62655;BME280;48717;55.556;37.816;2022-12-07T07:23:20;100619.09;;;-9.93;70.87
62655;BME280;48717;55.556;37.816;2022-12-07T07:25:47;100618.94;;;-9.86;70.47
62655;BME280;48717;55.556;37.816;2022-12-07T07:28:15;100603.25;;;-9.72;69.56
62655;BME280;48717;55.556;37.816;2022-12-07T07:30:43;100569.97;;;-9.35;68.21
62655;BME280;48717;55.556;37.816;2022-12-07T07:33:10;100587.09;;;-8.76;66.08
62655;BME280;48717;55.556;37.816;2022-12-07T07:35:38;100594.88;;;-8.45;63.86
62655;BME280;48717;55.556;37.816;2022-12-07T07:38:06;100613.00;;;-8.42;63.53
62655;BME280;48717;55.556;37.816;2022-12-07T07:40:33;100591.81;;;-8.70;62.89
62655;BME280;48717;55.556;37.816;2022-12-07T07:43:00;100598.81;;;-8.78;64.53
62655;BME280;48717;55.556;37.816;2022-12-07T07:45:27;100603.22;;;-8.67;63.64
62655;BME280;48717;55.556;37.816;2022-12-07T07:47:54;100591.66;;;-8.72;63.78
62655;BME280;48717;55.556;37.816;2022-12-07T07:50:22;100600.84;;;-8.44;63.05
62655;BME280;48717;55.556;37.816;2022-12-07T07:52:49;100602.59;;;-8.24;62.20
62655;BME280;48717;55.556;37.816;2022-12-07T07:55:18;100555.31;;;-7.98;61.67
62655;BME280;48717;55.556;37.816;2022-12-07T07:57:46;100585.06;;;-7.38;60.43
62655;BME280;48717;55.556;37.816;2022-12-07T08:00:20;100589.41;;;-7.16;58.12
62655;BME280;48717;55.556;37.816;2022-12-07T08:02:48;100597.47;;;-7.63;58.65
62655;BME280;48717;55.556;37.816;2022-12-07T08:05:15;100605.78;;;-7.76;59.51
62655;BME280;48717;55.556;37.816;2022-12-07T08:07:43;100598.88;;;-7.67;59.62
62655;BME280;48717;55.556;37.816;2022-12-07T08:10:12;100591.56;;;-7.00;58.54
62655;BME280;48717;55.556;37.816;2022-12-07T08:12:41;100572.50;;;-6.60;56.49
62655;BME280;48717;55.556;37.816;2022-12-07T08:15:31;100574.84;;;-5.96;54.65
62655;BME280;48717;55.556;37.816;2022-12-07T08:17:58;100536.91;;;-6.45;54.65
62655;BME280;48717;55.556;37.816;2022-12-07T08:20:26;100558.88;;;-6.26;55.01
62655;BME280;48717;55.556;37.816;2022-12-07T08:22:53;100580.78;;;-5.63;53.73
62655;BME280;48717;55.556;37.816;2022-12-07T08:25:21;100553.13;;;-6.12;53.18
62655;BME280;48717;55.556;37.816;2022-12-07T08:27:56;100543.97;;;-5.74;52.58
62655;BME280;48717;55.556;37.816;2022-12-07T08:30:23;100578.44;;;-5.26;51.09
62655;BME280;48717;55.556;37.816;2022-12-07T08:32:51;100555.41;;;-4.88;51.51
62655;BME280;48717;55.556;37.816;2022-12-07T08:35:19;100552.06;;;-4.87;50.49
62655;BME280;48717;55.556;37.816;2022-12-07T08:37:46;100565.03;;;-4.62;49.91
62655;BME280;48717;55.556;37.816;2022-12-07T08:40:13;100562.34;;;-4.87;50.52
62655;BME280;48717;55.556;37.816;2022-12-07T08:42:42;100561.66;;;-4.73;49.75
62655;BME280;48717;55.556;37.816;2022-12-07T08:45:13;100530.34;;;-5.15;49.23
62655;BME280;48717;55.556;37.816;2022-12-07T08:47:52;100546.00;;;-5.00;49.80
62655;BME280;48717;55.556;37.816;2022-12-07T08:50:21;100555.19;;;-5.03;49.77
62655;BME280;48717;55.556;37.816;2022-12-07T08:52:52;100544.09;;;-5.14;49.42
62655;BME280;48717;55.556;37.816;2022-12-07T08:55:20;100543.31;;;-5.25;49.21
62655;BME280;48717;55.556;37.816;2022-12-07T08:57:47;100499.50;;;-5.27;48.89
62655;BME280;48717;55.556;37.816;2022-12-07T09:00:15;100523.66;;;-5.13;48.77
62655;BME280;48717;55.556;37.816;2022-12-07T09:02:44;100514.22;;;-5.60;48.54
62655;BME280;48717;55.556;37.816;2022-12-07T09:05:12;100554.38;;;-5.72;50.00
62655;BME280;48717;55.556;37.816;2022-12-07T09:07:44;100533.44;;;-5.55;49.79
62655;BME280;48717;55.556;37.816;2022-12-07T09:10:13;100510.00;;;-5.12;48.66
62655;BME280;48717;55.556;37.816;2022-12-07T09:12:40;100532.22;;;-4.64;47.47
62655;BME280;48717;55.556;37.816;2022-12-07T09:15:07;100544.53;;;-5.20;47.51
62655;BME280;48717;55.556;37.816;2022-12-07T09:17:35;100537.91;;;-5.40;48.04
62655;BME280;48717;55.556;37.816;2022-12-07T09:20:04;100535.56;;;-5.61;48.45
62655;BME280;48717;55.556;37.816;2022-12-07T09:22:32;100504.25;;;-5.55;49.72
62655;BME280;48717;55.556;37.816;2022-12-07T09:25:00;100517.34;;;-5.40;49.54
62655;BME280;48717;55.556;37.816;2022-12-07T09:27:29;100514.00;;;-5.39;49.23
62655;BME280;48717;55.556;37.816;2022-12-07T09:29:56;100515.47;;;-5.31;49.37
62655;BME280;48717;55.556;37.816;2022-12-07T09:32:23;100476.25;;;-5.16;49.05
62655;BME280;48717;55.556;37.816;2022-12-07T09:34:51;100512.09;;;-4.58;47.39
62655;BME280;48717;55.556;37.816;2022-12-07T09:37:19;100510.38;;;-4.34;47.20
62655;BME280;48717;55.556;37.816;2022-12-07T09:39:46;100498.66;;;-4.16;45.75
62655;BME280;48717;55.556;37.816;2022-12-07T09:44:52;100511.28;;;-3.82;45.65
62655;BME280;48717;55.556;37.816;2022-12-07T09:47:18;100488.84;;;-3.97;45.90
62655;BME280;48717;55.556;37.816;2022-12-07T09:49:46;100503.75;;;-4.30;45.50
62655;BME280;48717;55.556;37.816;2022-12-07T09:52:19;100500.84;;;-4.84;46.82
62655;BME280;48717;55.556;37.816;2022-12-07T09:54:49;100510.09;;;-4.86;47.75
62655;BME280;48717;55.556;37.816;2022-12-07T09:57:19;100500.34;;;-5.62;48.15
62655;BME280;48717;55.556;37.816;2022-12-07T09:59:49;100476.88;;;-5.55;49.60
62655;BME280;48717;55.556;37.816;2022-12-07T10:02:56;100486.97;;;-5.10;48.95
62655;BME280;48717;55.556;37.816;2022-12-07T10:05:35;100486.19;;;-5.33;47.64
62655;BME280;48717;55.556;37.816;2022-12-07T10:08:05;100462.72;;;-5.26;47.34
62655;BME280;48717;55.556;37.816;2022-12-07T10:10:35;100495.72;;;-5.08;47.64
62655;BME280;48717;55.556;37.816;2022-12-07T10:13:13;100488.75;;;-4.85;46.82
62655;BME280;48717;55.556;37.816;2022-12-07T10:18:33;100477.19;;;-4.66;46.59
62655;BME280;48717;55.556;37.816;2022-12-07T10:24:03;100497.00;;;-4.65;47.30
62655;BME280;48717;55.556;37.816;2022-12-07T10:26:32;100514.38;;;-4.99;46.41
62655;BME280;48717;55.556;37.816;2022-12-07T10:29:04;100470.88;;;-5.31;47.99
62655;BME280;48717;55.556;37.816;2022-12-07T10:31:41;100507.91;;;-5.76;48.85
62655;BME280;48717;55.556;37.816;2022-12-07T10:34:27;100498.78;;;-6.29;49.65
62655;BME280;48717;55.556;37.816;2022-12-07T10:45:06;100446.91;;;-5.66;49.62
62655;BME280;48717;55.556;37.816;2022-12-07T10:47:47;100467.06;;;-5.13;49.01
62655;BME280;48717;55.556;37.816;2022-12-07T10:59:10;100459.63;;;-4.72;48.60
62655;BME280;48717;55.556;37.816;2022-12-07T11:10:41;100449.97;;;-5.36;47.61
62655;BME280;48717;55.556;37.816;2022-12-07T11:13:25;100448.41;;;-5.34;48.33
62655;BME280;48717;55.556;37.816;2022-12-07T11:19:01;100448.19;;;-5.25;49.45
62655;BME280;48717;55.556;37.816;2022-12-07T11:21:56;100431.50;;;-5.66;49.71
62655;BME280;48717;55.556;37.816;2022-12-07T11:27:40;100439.69;;;-6.18;50.74
62655;BME280;48717;55.556;37.816;2022-12-07T11:41:00;100428.72;;;-5.69;50.02
62655;BME280;48717;55.556;37.816;2022-12-07T11:43:52;100355.28;;;-6.60;50.95
62655;BME280;48717;55.556;37.816;2022-12-07T11:56:56;100413.44;;;-5.56;50.64
62655;BME280;48717;55.556;37.816;2022-12-07T11:59:39;100414.09;;;-5.58;50.33
62655;BME280;48717;55.556;37.816;2022-12-07T12:02:16;100415.69;;;-6.19;51.15
62655;BME280;48717;55.556;37.816;2022-12-07T12:04:59;100422.53;;;-6.64;53.30
62655;BME280;48717;55.556;37.816;2022-12-07T12:07:29;100409.78;;;-6.74;53.38
62655;BME280;48717;55.556;37.816;2022-12-07T12:21:47;100380.09;;;-7.15;55.54
62655;BME280;48717;55.556;37.816;2022-12-07T12:24:26;100402.50;;;-7.02;55.39
62655;BME280;48717;55.556;37.816;2022-12-07T12:27:01;100404.34;;;-7.22;54.97
62655;BME280;48717;55.556;37.816;2022-12-07T12:29:35;100405.72;;;-7.38;55.78
62655;BME280;48717;55.556;37.816;2022-12-07T12:32:07;100382.84;;;-7.57;57.30
62655;BME280;48717;55.556;37.816;2022-12-07T12:34:42;100391.84;;;-7.83;57.58
62655;BME280;48717;55.556;37.816;2022-12-07T12:37:52;100388.41;;;-7.94;59.15
62655;BME280;48717;55.556;37.816;2022-12-07T12:42:54;100391.09;;;-8.44;59.68
62655;BME280;48717;55.556;37.816;2022-12-07T12:45:29;100387.94;;;-8.62;60.16
62655;BME280;48717;55.556;37.816;2022-12-07T12:48:02;100392.50;;;-8.69;61.21
62655;BME280;48717;55.556;37.816;2022-12-07T12:50:35;100356.03;;;-8.97;61.42
62655;BME280;48717;55.556;37.816;2022-12-07T12:53:22;100345.38;;;-9.23;63.00
62655;BME280;48717;55.556;37.816;2022-12-07T13:04:59;100373.78;;;-9.68;66.07
62655;BME280;48717;55.556;37.816;2022-12-07T13:15:52;100388.13;;;-9.99;68.12
62655;BME280;48717;55.556;37.816;2022-12-07T13:31:46;100390.16;;;-10.33;69.48
62655;BME280;48717;55.556;37.816;2022-12-07T13:34:36;100368.13;;;-10.52;69.73
62655;BME280;48717;55.556;37.816;2022-12-07T13:37:11;100383.97;;;-10.45;70.17
62655;BME280;48717;55.556;37.816;2022-12-07T13:40:18;100380.25;;;-10.49;69.89
62655;BME280;48717;55.556;37.816;2022-12-07T13:42:46;100374.47;;;-10.57;69.97
62655;BME280;48717;55.556;37.816;2022-12-07T13:48:32;100368.78;;;-10.63;70.60
62655;BME280;48717;55.556;37.816;2022-12-07T13:51:02;100379.88;;;-10.63;70.91
62655;BME280;48717;55.556;37.816;2022-12-07T13:53:30;100388.13;;;-10.65;71.22
62655;BME280;48717;55.556;37.816;2022-12-07T13:55:58;100389.53;;;-10.69;70.84
62655;BME280;48717;55.556;37.816;2022-12-07T13:58:27;100366.75;;;-10.76;71.37
62655;BME280;48717;55.556;37.816;2022-12-07T14:00:59;100359.56;;;-10.80;71.37
62655;BME280;48717;55.556;37.816;2022-12-07T14:03:31;100379.91;;;-10.71;70.89
62655;BME280;48717;55.556;37.816;2022-12-07T14:08:42;100372.94;;;-10.83;71.39
62655;BME280;48717;55.556;37.816;2022-12-07T14:11:19;100371.56;;;-10.79;71.99
62655;BME280;48717;55.556;37.816;2022-12-07T14:13:56;100355.72;;;-10.85;71.48
62655;BME280;48717;55.556;37.816;2022-12-07T14:16:30;100364.44;;;-10.92;72.42
62655;BME280;48717;55.556;37.816;2022-12-07T14:19:00;100325.53;;;-11.09;72.30
62655;BME280;48717;55.556;37.816;2022-12-07T14:21:30;100355.13;;;-10.92;71.79
62655;BME280;48717;55.556;37.816;2022-12-07T14:24:17;100367.84;;;-10.83;72.01
62655;BME280;48717;55.556;37.816;2022-12-07T14:26:47;100363.50;;;-10.84;72.94
62655;BME280;48717;55.556;37.816;2022-12-07T14:31:59;100341.97;;;-10.96;72.74
62655;BME280;48717;55.556;37.816;2022-12-07T14:34:37;100358.13;;;-10.96;73.32
62655;BME280;48717;55.556;37.816;2022-12-07T14:37:08;100355.88;;;-10.93;73.64
62655;BME280;48717;55.556;37.816;2022-12-07T14:39:36;100363.22;;;-10.96;73.54
62655;BME280;48717;55.556;37.816;2022-12-07T14:42:03;100353.09;;;-11.05;73.51
62655;BME280;48717;55.556;37.816;2022-12-07T14:44:30;100361.03;;;-11.02;73.47
62655;BME280;48717;55.556;37.816;2022-12-07T14:47:01;100348.63;;;-11.16;73.35
62655;BME280;48717;55.556;37.816;2022-12-07T14:49:48;100290.34;;;-11.41;73.69
62655;BME280;48717;55.556;37.816;2022-12-07T14:52:20;100323.53;;;-11.31;74.52
62655;BME280;48717;55.556;37.816;2022-12-07T14:55:13;100342.03;;;-11.14;74.19
62655;BME280;48717;55.556;37.816;2022-12-07T14:57:41;100368.06;;;-11.08;74.54
62655;BME280;48717;55.556;37.816;2022-12-07T15:00:13;100339.66;;;-11.21;74.43
62655;BME280;48717;55.556;37.816;2022-12-07T15:02:41;100369.91;;;-11.07;74.70
62655;BME280;48717;55.556;37.816;2022-12-07T15:05:08;100338.19;;;-11.19;75.07
62655;BME280;48717;55.556;37.816;2022-12-07T15:07:42;100335.78;;;-11.27;74.10
62655;BME280;48717;55.556;37.816;2022-12-07T15:10:22;100316.94;;;-11.29;74.57
62655;BME280;48717;55.556;37.816;2022-12-07T15:12:50;100349.53;;;-11.16;74.39
62655;BME280;48717;55.556;37.816;2022-12-07T15:15:18;100330.84;;;-11.25;74.66
62655;BME280;48717;55.556;37.816;2022-12-07T15:17:45;100351.47;;;-11.13;74.91
62655;BME280;48717;55.556;37.816;2022-12-07T15:20:14;100352.53;;;-11.11;74.94
62655;BME280;48717;55.556;37.816;2022-12-07T15:22:43;100339.50;;;-11.14;75.22
62655;BME280;48717;55.556;37.816;2022-12-07T15:25:13;100337.84;;;-11.14;75.53
62655;BME280;48717;55.556;37.816;2022-12-07T15:27:44;100340.44;;;-11.22;76.04